This is the latest recevied weather packets stored in our database for station/object KU9TRY. If no packets are shown the sender has not sent any weather packets the latest 10 day(s).
| Time | Temp. | Humidity | Pressure | Rain* | Wind** | Luminosity | Snow |
|---|---|---|---|---|---|---|---|
| 1788105062 | 31.67° C | 62% | 1021.4 hPa | 0 mm | - | 837 W/m² | - |
| 1788104757 | 31.67° C | 59% | 1021.7 hPa | 0 mm | - | 832 W/m² | - |
| 1788104453 | 31.11° C | 63% | 1021.8 hPa | 0 mm | - | 827 W/m² | - |
| 1788104149 | 30.56° C | 63% | 1021.8 hPa | 0 mm | - | 830 W/m² | - |
| 1788103849 | 31.11° C | 62% | 1021.8 hPa | 0 mm | - | 184 W/m² | - |
| 1788103543 | 30.56° C | 64% | 1021.7 hPa | 0 mm | - | 568 W/m² | - |
| 1788103243 | 30.56° C | 64% | 1021.5 hPa | 0 mm | - | 523 W/m² | - |
| 1788102942 | 30° C | 65% | 1021.7 hPa | 0 mm | - | 549 W/m² | - |
| 1788102637 | 30.56° C | 64% | 1021.6 hPa | 0 mm | - | 710 W/m² | - |
| 1788102336 | 30.56° C | 65% | 1021.7 hPa | 0 mm | - | 695 W/m² | - |
| 1788102032 | 31.11° C | 62% | 1021.7 hPa | 0 mm | - | 677 W/m² | - |
| 1788101731 | 30.56° C | 65% | 1021.6 hPa | 0 mm | - | 667 W/m² | - |
| 1788101427 | 30° C | 66% | 1021.7 hPa | 0 mm | - | 648 W/m² | - |
| 1788101122 | 30° C | 67% | 1021.7 hPa | 0 mm | - | 632 W/m² | - |
| 1788100818 | 30° C | 67% | 1021.6 hPa | 0 mm | - | 612 W/m² | - |
| 1788100514 | 30° C | 65% | 1021.6 hPa | 0 mm | - | 592 W/m² | - |
| 1788100212 | 30° C | 68% | 1021.6 hPa | 0 mm | - | 580 W/m² | - |
| 1788099907 | 29.44° C | 68% | 1021.7 hPa | 0 mm | - | 556 W/m² | - |
| 1788099602 | 29.44° C | 69% | 1021.7 hPa | 0 mm | - | 539 W/m² | - |
| 1788099297 | 29.44° C | 71% | 1021.7 hPa | 0 mm | - | 521 W/m² | - |
| 1788098992 | 29.44° C | 69% | 1021.7 hPa | 0 mm | - | 502 W/m² | - |
| 1788098693 | 29.44° C | 70% | 1021.8 hPa | 0 mm | - | 482 W/m² | - |
| 1788098392 | 28.33° C | 73% | 1021.7 hPa | 0 mm | - | 464 W/m² | - |
| 1788098088 | 27.78° C | 76% | 1021.7 hPa | 0 mm | - | 439 W/m² | - |
| 1788097783 | 27.22° C | 79% | 1021.7 hPa | 0 mm | - | 386 W/m² | - |
* Rain latest hour (hover to see other rain measurements)
** Current wind speed in m/s (hover to see current wind gust speed)